Terminal Aerodrome Forecast
Issued by NWS

Home | Current Version | Previous Version | Text Only | Print | Product List | Glossary On
Versions: 1 2 3 4 5 6 7 8 9 10 11 12 13 14
000
FTUS46 KMTR 302339
TAFOAK
TAF
KOAK 302339Z 0100/0206 30012KT P6SM BKN200
     FM010400 30009KT P6SM FEW200
     FM010700 30004KT P6SM FEW010 FEW200
     FM011800 29008KT P6SM FEW200
     FM012100 30015KT P6SM FEW200=

USA.gov is the U.S. government's official web portal to all federal, state and local government web resources and services.